Time;durP1;ratioP1;P1;durP2;ratioP2;P2;SDS_P1;SDS_P2;PMS_P1;PMS_P2;Temp;Humidity;BMP_temperature;BMP_pressure;BME280_temperature;BME280_humidity;BME280_pressure;Samples;Min_cycle;Max_cycle;Signal;HPM_P1;HPM_P2
2023/07/20 00:01:44;;;;;;;6.13;3.40;;;;;;;29.88;44.43;98370.72;5015464;28;20292;-88
2023/07/20 00:04:12;;;;;;;4.90;3.08;;;;;;;29.88;44.80;98374.25;4997125;28;20618;-88
2023/07/20 00:06:40;;;;;;;6.97;3.28;;;;;;;29.90;44.61;98382.97;4995660;28;20179;-88
2023/07/20 00:09:07;;;;;;;10.63;3.30;;;;;;;29.80;45.62;98386.19;4995837;28;20207;-88
2023/07/20 00:11:37;;;;;;;4.95;2.95;;;;;;;29.83;45.16;98384.91;4995992;28;20267;-88
2023/07/20 00:14:05;;;;;;;8.38;3.03;;;;;;;29.85;44.95;98374.69;4996511;28;20163;-88
2023/07/20 00:16:33;;;;;;;5.93;3.10;;;;;;;29.80;45.29;98375.38;4995627;28;20249;-88
2023/07/20 00:18:59;;;;;;;5.35;3.25;;;;;;;29.83;45.21;98377.63;4995458;28;20184;-87
2023/07/20 00:21:26;;;;;;;5.75;3.40;;;;;;;29.82;45.50;98370.56;4995869;28;20190;-87
2023/07/20 00:23:53;;;;;;;7.63;3.38;;;;;;;29.77;45.81;98364.97;4996036;28;20175;-87
2023/07/20 00:26:18;;;;;;;6.45;3.75;;;;;;;29.72;45.84;98363.97;5002955;28;20175;-88
2023/07/20 00:28:44;;;;;;;14.05;4.20;;;;;;;29.65;46.20;98360.53;5014551;28;20198;-88
2023/07/20 00:31:09;;;;;;;6.07;3.78;;;;;;;29.53;46.45;98357.72;5013872;28;20213;-88
2023/07/20 00:33:37;;;;;;;7.53;3.65;;;;;;;29.40;46.83;98354.28;5014742;28;20667;-87
2023/07/20 00:36:02;;;;;;;8.35;3.72;;;;;;;29.42;46.33;98365.69;5015088;28;20189;-88
2023/07/20 00:38:29;;;;;;;11.70;3.83;;;;;;;29.49;45.85;98383.50;5014795;28;20262;-87
2023/07/20 00:40:55;;;;;;;9.73;3.70;;;;;;;29.52;46.20;98420.88;5015026;28;20237;-87
2023/07/20 00:43:21;;;;;;;7.78;3.80;;;;;;;29.24;47.10;98507.63;5014461;28;20194;-87
2023/07/20 00:45:47;;;;;;;5.53;3.38;;;;;;;28.31;47.65;98542.25;4997429;28;20273;-87
2023/07/20 00:48:14;;;;;;;12.68;3.90;;;;;;;28.10;46.67;98527.09;5013892;28;20286;-86
2023/07/20 00:50:41;;;;;;;7.07;3.17;;;;;;;28.24;45.40;98533.34;4997132;28;20254;-87
2023/07/20 00:53:08;;;;;;;7.78;3.38;;;;;;;28.34;45.05;98531.88;4998306;28;20182;-86
2023/07/20 00:55:34;;;;;;;5.68;3.30;;;;;;;28.35;44.27;98520.06;5014488;28;20178;-88
2023/07/20 00:58:00;;;;;;;6.57;3.92;;;;;;;28.24;45.00;98480.25;5014730;28;20529;-86
2023/07/20 01:00:25;;;;;;;8.80;3.95;;;;;;;28.54;45.10;98462.56;5014721;28;20182;-86
2023/07/20 01:02:52;;;;;;;16.17;3.95;;;;;;;28.63;45.83;98477.53;5014108;28;20611;-86
2023/07/20 01:05:18;;;;;;;10.48;4.13;;;;;;;28.88;45.14;98484.94;5014856;28;20597;-86
2023/07/20 01:08:06;;;;;;;6.97;3.55;;;;;;;28.97;44.84;98494.44;5014212;28;20229;-86
2023/07/20 01:10:39;;;;;;;8.20;4.32;;;;;;;28.87;45.01;98469.78;5014769;28;20245;-86
2023/07/20 01:13:09;;;;;;;12.90;3.78;;;;;;;28.90;45.05;98459.41;5014784;28;20186;-86
2023/07/20 01:15:34;;;;;;;6.45;3.28;;;;;;;28.80;45.37;98444.69;5014587;28;20232;-86
2023/07/20 01:18:01;;;;;;;5.78;3.20;;;;;;;28.79;45.49;98426.84;4993419;28;20183;-86
2023/07/20 01:20:30;;;;;;;6.53;3.83;;;;;;;28.82;45.62;98437.22;4997024;28;20322;-86
2023/07/20 01:23:40;;;;;;;10.25;4.05;;;;;;;28.82;46.25;98450.72;5014017;28;20615;-86
2023/07/20 01:26:39;;;;;;;7.60;3.40;;;;;;;28.88;45.77;98447.16;4984068;28;20198;-86
2023/07/20 01:29:10;;;;;;;5.00;3.17;;;;;;;28.98;45.87;98450.22;5012874;28;20664;-86
2023/07/20 01:31:38;;;;;;;6.78;3.63;;;;;;;29.00;46.31;98445.44;5012987;28;20613;-86
2023/07/20 01:34:08;;;;;;;5.63;3.35;;;;;;;28.96;46.05;98444.19;5014102;28;20560;-86
2023/07/20 01:36:36;;;;;;;9.25;3.25;;;;;;;28.82;46.57;98432.66;4996473;28;20269;-86
2023/07/20 01:39:04;;;;;;;6.53;3.53;;;;;;;28.75;46.51;98434.53;4996742;28;20179;-86
2023/07/20 01:41:30;;;;;;;5.18;3.00;;;;;;;28.73;46.79;98433.09;5014020;28;20194;-86
2023/07/20 01:43:59;;;;;;;6.38;3.75;;;;;;;28.72;47.28;98431.44;4996368;28;20175;-87
2023/07/20 01:46:25;;;;;;;6.32;3.42;;;;;;;28.69;47.52;98431.88;4982315;28;20202;-86
2023/07/20 01:48:52;;;;;;;7.32;3.85;;;;;;;28.62;48.15;98438.09;4994552;28;20203;-86
2023/07/20 01:51:18;;;;;;;5.72;3.10;;;;;;;28.63;47.92;98449.72;4993379;28;20262;-86
2023/07/20 01:53:45;;;;;;;6.70;3.33;;;;;;;28.57;48.16;98432.50;4977203;28;20568;-86
2023/07/20 01:56:12;;;;;;;6.50;3.40;;;;;;;28.44;48.19;98427.13;4992741;28;20188;-86
2023/07/20 01:58:38;;;;;;;6.28;3.45;;;;;;;28.35;48.52;98425.72;4992866;28;20184;-86
2023/07/20 02:01:03;;;;;;;5.90;3.47;;;;;;;28.32;48.77;98426.13;4993893;28;20179;-86
2023/07/20 02:03:30;;;;;;;6.13;3.78;;;;;;;28.28;48.40;98419.50;4976746;28;20186;-86
2023/07/20 02:05:56;;;;;;;6.40;3.63;;;;;;;28.26;48.91;98416.19;5004891;28;20253;-86
2023/07/20 02:08:23;;;;;;;8.85;3.95;;;;;;;28.27;48.52;98409.78;4996049;28;20265;-86
2023/07/20 02:10:49;;;;;;;5.47;3.72;;;;;;;28.22;49.15;98404.19;5013405;28;20183;-86
2023/07/20 02:13:15;;;;;;;9.50;4.10;;;;;;;28.09;48.84;98397.97;5012436;28;20189;-87
2023/07/20 02:15:47;;;;;;;9.02;3.65;;;;;;;28.02;48.46;98398.81;4996301;28;20186;-86
2023/07/20 02:18:12;;;;;;;9.68;4.05;;;;;;;28.04;49.20;98403.97;4996121;28;20179;-86
2023/07/20 02:20:38;;;;;;;5.05;3.30;;;;;;;28.00;49.22;98406.25;5014006;28;20306;-86
2023/07/20 02:23:04;;;;;;;7.07;3.92;;;;;;;27.98;49.08;98402.09;5013235;28;20175;-86
2023/07/20 02:25:30;;;;;;;9.43;4.10;;;;;;;27.72;49.79;98402.13;5013835;28;20656;-86
2023/07/20 02:27:56;;;;;;;7.03;3.95;;;;;;;27.70;50.20;98404.19;4995798;28;20175;-86
2023/07/20 02:30:22;;;;;;;6.18;3.63;;;;;;;27.64;50.39;98399.63;5003664;28;20183;-86
2023/07/20 02:32:48;;;;;;;6.78;3.97;;;;;;;27.63;49.86;98403.34;4980344;28;20267;-86
2023/07/20 02:35:17;;;;;;;7.72;3.78;;;;;;;27.64;49.68;98403.16;4998381;28;20176;-87
2023/07/20 02:37:43;;;;;;;5.53;3.47;;;;;;;27.63;49.89;98404.19;4997530;28;20175;-86
2023/07/20 02:40:10;;;;;;;6.88;3.72;;;;;;;27.63;49.61;98403.34;4997876;28;20183;-86
2023/07/20 02:42:37;;;;;;;9.70;4.30;;;;;;;27.59;50.23;98399.41;5009236;28;20183;-86
2023/07/20 02:45:05;;;;;;;6.15;3.80;;;;;;;27.59;50.63;98416.41;5017516;28;20613;-87
2023/07/20 02:47:30;;;;;;;7.47;3.63;;;;;;;27.63;50.26;98414.94;5017727;28;20198;-87
2023/07/20 02:49:56;;;;;;;8.45;4.07;;;;;;;27.56;50.17;98418.69;5016563;28;20286;-86
2023/07/20 02:52:24;;;;;;;9.20;3.63;;;;;;;27.53;50.44;98414.53;5016748;28;20175;-87
2023/07/20 02:54:51;;;;;;;9.15;4.30;;;;;;;27.39;50.88;98411.00;4999472;28;20270;-86
2023/07/20 02:57:16;;;;;;;8.93;4.00;;;;;;;27.35;50.97;98401.66;5017008;28;20248;-86
2023/07/20 02:59:42;;;;;;;8.68;4.10;;;;;;;27.42;50.56;98405.19;5016633;28;20629;-86
2023/07/20 03:02:09;;;;;;;7.35;4.13;;;;;;;27.54;50.55;98415.38;5016579;28;20199;-86
2023/07/20 03:04:38;;;;;;;8.15;4.20;;;;;;;27.56;50.60;98418.69;4999901;28;20518;-86
2023/07/20 03:07:07;;;;;;;6.90;3.60;;;;;;;27.52;50.09;98428.19;5016571;28;20236;-86
2023/07/20 03:09:34;;;;;;;5.47;3.33;;;;;;;27.53;50.35;98425.31;5016943;28;20199;-86
2023/07/20 03:11:59;;;;;;;10.38;3.80;;;;;;;27.47;50.47;98423.41;4999130;28;20183;-86
2023/07/20 03:14:26;;;;;;;5.80;2.85;;;;;;;27.38;50.85;98424.63;4999192;28;20179;-86
2023/07/20 03:16:51;;;;;;;8.18;3.83;;;;;;;27.12;52.02;98422.69;5017194;28;20171;-86
2023/07/20 03:19:17;;;;;;;8.05;4.10;;;;;;;26.94;52.08;98429.69;5016202;28;20262;-86
2023/07/20 03:21:43;;;;;;;7.05;3.83;;;;;;;26.92;52.28;98423.66;5015367;28;20175;-86
2023/07/20 03:24:09;;;;;;;6.57;4.55;;;;;;;26.90;52.93;98423.88;5016515;28;20175;-86
2023/07/20 03:26:36;;;;;;;9.27;3.55;;;;;;;26.81;54.17;98422.38;4999127;28;20175;-86
2023/07/20 03:29:02;;;;;;;5.20;3.47;;;;;;;26.84;53.34;98420.13;4998703;28;20203;-86
2023/07/20 03:31:28;;;;;;;7.75;4.40;;;;;;;26.78;53.72;98423.59;5015901;28;20179;-86
2023/07/20 03:33:54;;;;;;;7.50;3.72;;;;;;;26.72;54.09;98434.31;5016038;28;20186;-86
2023/07/20 03:36:20;;;;;;;5.95;3.88;;;;;;;26.80;53.58;98434.19;5015955;28;20175;-86
2023/07/20 03:38:47;;;;;;;8.18;4.00;;;;;;;26.91;52.79;98432.78;4999056;28;20175;-86
2023/07/20 03:41:12;;;;;;;8.60;3.28;;;;;;;27.00;53.05;98429.69;5016036;28;20262;-86
2023/07/20 03:43:39;;;;;;;6.88;3.15;;;;;;;26.96;53.43;98427.63;5015848;28;20267;-86
2023/07/20 03:46:06;;;;;;;8.18;4.10;;;;;;;26.93;54.25;98428.03;4998551;28;20182;-86
2023/07/20 03:48:33;;;;;;;6.72;3.50;;;;;;;26.94;54.54;98429.69;4998663;28;20570;-85
2023/07/20 03:51:00;;;;;;;9.15;3.85;;;;;;;26.96;55.33;98422.25;4998984;28;20241;-86
2023/07/20 03:53:27;;;;;;;8.38;3.55;;;;;;;26.91;55.57;98425.53;5015960;28;20171;-86
2023/07/20 03:55:53;;;;;;;8.25;4.25;;;;;;;26.88;56.11;98417.03;5015603;28;20175;-86
2023/07/20 03:58:19;;;;;;;6.40;3.85;;;;;;;26.94;56.07;98421.63;5015530;28;20251;-86
2023/07/20 04:00:52;;;;;;;5.25;3.20;;;;;;;26.97;56.34;98408.56;4998238;28;20179;-86
2023/07/20 04:03:20;;;;;;;7.07;3.92;;;;;;;26.98;56.22;98414.78;5015755;28;20535;-86
2023/07/20 04:05:45;;;;;;;11.05;3.83;;;;;;;26.98;57.30;98415.63;5015417;28;20178;-86
2023/07/20 04:08:12;;;;;;;7.18;3.97;;;;;;;26.95;57.84;98412.50;4997794;28;20206;-86
2023/07/20 04:10:38;;;;;;;5.55;3.72;;;;;;;27.07;58.00;98409.00;5015337;28;20171;-86
2023/07/20 04:13:05;;;;;;;8.82;3.58;;;;;;;27.23;56.86;98408.66;4998383;28;20175;-86
2023/07/20 04:15:31;;;;;;;5.95;3.90;;;;;;;27.44;55.88;98405.81;4976459;28;20176;-86
2023/07/20 04:17:57;;;;;;;8.23;4.20;;;;;;;27.53;56.01;98411.00;4959633;28;20631;-86
2023/07/20 04:20:23;;;;;;;7.50;3.60;;;;;;;27.58;56.14;98408.53;4976823;28;20196;-86
2023/07/20 04:22:49;;;;;;;8.07;3.65;;;;;;;27.59;56.87;98396.72;5006106;28;20181;-86
2023/07/20 04:25:15;;;;;;;6.38;3.88;;;;;;;27.65;56.98;98394.03;5015072;28;20175;-86
2023/07/20 04:27:40;;;;;;;5.63;3.78;;;;;;;27.75;56.48;98385.56;4998103;28;20240;-86
2023/07/20 04:30:10;;;;;;;6.22;3.45;;;;;;;27.81;56.09;98390.09;5014717;28;20199;-86
2023/07/20 04:32:35;;;;;;;10.77;4.47;;;;;;;27.88;55.07;98397.13;5014955;28;20171;-86
2023/07/20 04:35:06;;;;;;;8.25;3.40;;;;;;;27.94;54.16;98392.78;5014233;28;20537;-86
2023/07/20 04:37:32;;;;;;;9.32;3.97;;;;;;;28.02;53.72;98398.81;5015201;28;20155;-87
2023/07/20 04:39:57;;;;;;;12.55;3.65;;;;;;;28.11;53.65;98399.44;5014860;28;20178;-86
2023/07/20 04:42:22;;;;;;;10.18;4.05;;;;;;;28.22;53.80;98404.19;4997244;28;20197;-86
2023/07/20 04:44:48;;;;;;;6.70;3.50;;;;;;;28.28;53.02;98400.63;5014713;28;20202;-86
2023/07/20 04:47:13;;;;;;;8.13;4.45;;;;;;;28.41;53.10;98403.28;4997432;28;20555;-86
2023/07/20 04:49:39;;;;;;;11.82;4.32;;;;;;;28.48;52.65;98404.13;4997512;28;20210;-86
2023/07/20 04:52:05;;;;;;;8.60;4.18;;;;;;;28.66;52.09;98410.72;5014446;28;20171;-86
2023/07/20 04:54:30;;;;;;;6.05;3.83;;;;;;;28.78;52.05;98409.84;5014554;28;20623;-86
2023/07/20 04:56:56;;;;;;;7.43;3.65;;;;;;;28.83;52.48;98414.56;5013577;28;20262;-86
2023/07/20 04:59:21;;;;;;;6.82;3.55;;;;;;;28.79;53.09;98413.38;5014982;28;20181;-87
2023/07/20 05:01:46;;;;;;;8.73;3.78;;;;;;;28.91;53.35;98417.88;5015009;28;20270;-87
2023/07/20 05:04:12;;;;;;;7.00;4.70;;;;;;;29.10;52.52;98413.41;5013089;28;20183;-87
2023/07/20 05:06:38;;;;;;;8.38;3.72;;;;;;;29.30;50.88;98424.16;4997350;28;20183;-87
2023/07/20 05:09:05;;;;;;;6.03;3.20;;;;;;;29.44;50.38;98410.34;4997812;28;20199;-87
2023/07/20 05:11:30;;;;;;;6.78;3.50;;;;;;;29.65;48.46;98415.38;4997279;28;20398;-87
2023/07/20 05:13:56;;;;;;;5.30;3.33;;;;;;;29.86;48.17;98422.31;5014043;28;20203;-86
2023/07/20 05:16:21;;;;;;;8.20;3.20;;;;;;;30.04;47.85;98410.72;4996907;28;20262;-87
2023/07/20 05:18:46;;;;;;;5.15;3.35;;;;;;;30.17;47.59;98405.19;5002642;28;20570;-87
2023/07/20 05:21:13;;;;;;;6.40;3.53;;;;;;;30.34;48.32;98396.28;4981914;28;20181;-87
2023/07/20 05:23:38;;;;;;;5.57;3.58;;;;;;;30.47;49.49;98389.09;4978285;28;20511;-87
2023/07/20 05:26:04;;;;;;;12.82;4.25;;;;;;;30.61;49.27;98390.59;4966963;28;20642;-86
2023/07/20 05:28:31;;;;;;;7.85;3.90;;;;;;;30.93;48.94;98386.66;4975739;28;20701;-87
2023/07/20 05:30:59;;;;;;;7.40;4.10;;;;;;;31.11;48.71;98391.19;4963948;28;20527;-87
2023/07/20 05:33:25;;;;;;;7.20;3.65;;;;;;;31.28;47.47;98400.34;4985247;28;20180;-87
2023/07/20 05:35:50;;;;;;;5.43;3.38;;;;;;;31.51;46.91;98395.03;4981222;28;20559;-86
2023/07/20 05:38:15;;;;;;;10.52;3.78;;;;;;;31.63;43.15;98395.06;4970981;28;20618;-86
2023/07/20 05:40:42;;;;;;;7.30;3.28;;;;;;;31.53;42.65;98395.59;4980181;28;20192;-87
2023/07/20 05:43:08;;;;;;;6.25;3.60;;;;;;;31.39;42.18;98389.56;4965860;28;20699;-87
2023/07/20 05:45:33;;;;;;;8.07;3.42;;;;;;;31.51;42.45;98379.59;4981145;28;20188;-88
2023/07/20 05:47:59;;;;;;;7.65;3.08;;;;;;;31.90;40.34;98375.41;4980710;28;20184;-88
2023/07/20 05:50:24;;;;;;;8.35;3.55;;;;;;;32.07;40.46;98381.81;4979439;28;20194;-87
2023/07/20 05:52:52;;;;;;;6.85;3.72;;;;;;;32.11;41.18;98388.41;4989534;28;20668;-87
2023/07/20 05:55:18;;;;;;;5.63;3.65;;;;;;;32.02;41.30;98384.38;5013086;28;20761;-87
2023/07/20 05:57:43;;;;;;;6.38;3.00;;;;;;;31.80;42.39;98390.59;4985326;28;20258;-87
2023/07/20 06:00:10;;;;;;;5.53;3.10;;;;;;;32.13;42.01;98394.41;4983323;28;20190;-87
2023/07/20 06:02:35;;;;;;;9.57;4.68;;;;;;;32.28;41.73;98387.69;5004979;28;20267;-87
2023/07/20 06:05:01;;;;;;;8.02;3.53;;;;;;;32.47;41.93;98391.94;5011858;28;20175;-87
2023/07/20 06:07:26;;;;;;;8.07;4.45;;;;;;;32.48;43.27;98390.84;5012813;28;20209;-87
2023/07/20 06:09:52;;;;;;;8.63;4.65;;;;;;;32.17;43.48;98392.88;5013097;28;20280;-86
2023/07/20 06:12:17;;;;;;;10.30;4.63;;;;;;;31.95;44.20;98383.66;5013006;28;20530;-86
2023/07/20 06:14:43;;;;;;;8.45;4.18;;;;;;;32.01;45.44;98381.91;4995010;28;20175;-87
2023/07/20 06:17:08;;;;;;;6.75;3.88;;;;;;;32.06;45.05;98380.16;4996071;28;20612;-87
2023/07/20 06:19:34;;;;;;;9.50;4.13;;;;;;;31.68;43.17;98387.06;5013177;28;20827;-86
2023/07/20 06:21:59;;;;;;;8.60;4.15;;;;;;;32.09;43.99;98385.09;5013614;28;20167;-87
2023/07/20 06:24:25;;;;;;;13.07;4.57;;;;;;;32.45;42.60;98381.28;5013323;28;20179;-87
2023/07/20 06:26:50;;;;;;;7.53;3.90;;;;;;;32.53;42.41;98371.97;5013387;28;20642;-87
2023/07/20 06:29:16;;;;;;;6.28;3.90;;;;;;;32.66;41.86;98375.25;5012396;28;20190;-87
2023/07/20 06:31:41;;;;;;;6.63;3.70;;;;;;;32.63;42.35;98364.03;5013505;28;20171;-88
2023/07/20 06:34:07;;;;;;;10.73;4.50;;;;;;;32.95;42.57;98369.84;5013168;28;20175;-88
2023/07/20 06:36:32;;;;;;;15.20;3.88;;;;;;;33.13;41.35;98370.50;5013472;28;20214;-88
2023/07/20 06:38:58;;;;;;;10.25;4.38;;;;;;;33.29;40.70;98364.28;4995879;28;20190;-90
2023/07/20 06:41:23;;;;;;;6.20;4.15;;;;;;;33.64;39.85;98358.69;5013150;28;20175;-88
2023/07/20 06:43:50;;;;;;;7.68;3.80;;;;;;;33.83;40.17;98367.41;5013676;28;20261;-87
2023/07/20 06:46:15;;;;;;;9.02;3.90;;;;;;;33.90;39.78;98357.19;5013350;28;20171;-88
2023/07/20 06:48:41;;;;;;;9.38;4.15;;;;;;;34.12;39.99;98365.44;5013009;28;20261;-88
2023/07/20 06:51:06;;;;;;;7.55;4.68;;;;;;;34.14;38.80;98371.44;5013055;28;20640;-88
2023/07/20 06:53:32;;;;;;;8.35;3.50;;;;;;;34.04;38.78;98358.50;5012990;28;20613;-88
2023/07/20 06:55:58;;;;;;;6.20;3.63;;;;;;;34.21;39.25;98358.47;4995735;28;20194;-88
2023/07/20 06:58:24;;;;;;;8.77;3.58;;;;;;;34.55;38.43;98355.44;5012981;28;20245;-88
2023/07/20 07:00:49;;;;;;;7.72;3.58;;;;;;;34.83;37.60;98354.41;5012895;28;20659;-88
2023/07/20 07:03:15;;;;;;;7.10;4.07;;;;;;;34.82;37.07;98352.75;5012000;28;20262;-88
2023/07/20 07:05:41;;;;;;;14.38;4.55;;;;;;;35.05;38.42;98346.22;5012924;28;20706;-89
2023/07/20 07:08:07;;;;;;;9.38;3.72;;;;;;;35.31;37.01;98359.03;5012778;28;20179;-88
2023/07/20 07:10:34;;;;;;;6.35;3.75;;;;;;;35.19;36.23;98358.38;5013109;28;20225;-88
2023/07/20 07:13:01;;;;;;;7.32;3.65;;;;;;;35.46;36.03;98355.59;5012790;28;20261;-89
2023/07/20 07:15:27;;;;;;;8.02;4.00;;;;;;;35.47;37.38;98347.19;5013058;28;20199;-88
2023/07/20 07:17:52;;;;;;;6.50;3.72;;;;;;;35.74;35.36;98352.63;4998249;28;20203;-89
2023/07/20 07:20:18;;;;;;;8.30;3.38;;;;;;;35.93;35.09;98342.91;5017131;28;20552;-89
2023/07/20 07:22:43;;;;;;;5.10;3.63;;;;;;;36.27;35.16;98348.88;5016510;28;20199;-89
2023/07/20 07:25:09;;;;;;;8.48;3.13;;;;;;;36.40;35.44;98353.06;4998935;28;20175;-89
2023/07/20 07:27:35;;;;;;;8.02;4.40;;;;;;;36.56;34.93;98341.97;5016402;28;20232;-89
2023/07/20 07:30:02;;;;;;;6.82;3.88;;;;;;;36.81;34.85;98344.81;5016045;28;20202;-89
2023/07/20 07:32:27;;;;;;;8.93;4.28;;;;;;;36.87;34.08;98340.97;5016089;28;20167;-88
2023/07/20 07:34:52;;;;;;;7.15;3.85;;;;;;;37.03;34.96;98347.31;5015979;28;20171;-89
2023/07/20 07:37:19;;;;;;;8.05;3.90;;;;;;;36.99;34.58;98345.41;5015961;28;20171;-88
2023/07/20 07:39:45;;;;;;;8.20;3.97;;;;;;;37.06;33.91;98345.97;5015931;28;20171;-88
2023/07/20 07:42:14;;;;;;;8.95;4.30;;;;;;;37.37;34.06;98344.94;5004229;28;20613;-89
2023/07/20 07:44:39;;;;;;;13.18;3.85;;;;;;;37.69;34.50;98334.56;4996132;28;20652;-89
2023/07/20 07:47:05;;;;;;;8.02;3.35;;;;;;;37.87;34.13;98330.50;4996142;28;20176;-89
2023/07/20 07:49:54;;;;;;;7.20;3.70;;;;;;;38.16;33.83;98327.97;4998662;28;20210;-89
2023/07/20 07:52:22;;;;;;;6.93;3.63;;;;;;;38.43;30.68;98329.28;5015993;28;20186;-89
2023/07/20 07:54:47;;;;;;;9.05;3.92;;;;;;;38.64;31.37;98336.31;5015559;28;20179;-89
2023/07/20 07:57:13;;;;;;;5.88;2.92;;;;;;;38.50;31.93;98337.16;5015567;28;20174;-89
2023/07/20 07:59:39;;;;;;;6.57;3.75;;;;;;;38.52;31.18;98344.03;4998204;28;20560;-89
2023/07/20 08:02:05;;;;;;;8.07;3.25;;;;;;;38.68;32.13;98340.09;4998182;28;20189;-89
2023/07/20 08:04:31;;;;;;;5.20;3.22;;;;;;;38.61;31.37;98341.50;5014872;28;20186;-89
2023/07/20 08:06:57;;;;;;;6.68;3.03;;;;;;;38.74;31.88;98340.91;4998187;28;20171;-89
2023/07/20 08:09:23;;;;;;;5.15;3.05;;;;;;;38.93;30.86;98341.94;5004762;28;20286;-89
2023/07/20 08:11:49;;;;;;;5.40;3.08;;;;;;;38.89;29.88;98329.88;4978667;28;20266;-90
2023/07/20 08:14:15;;;;;;;6.30;3.78;;;;;;;38.70;30.76;98337.09;4978555;28;20180;-89
2023/07/20 08:16:40;;;;;;;5.78;3.42;;;;;;;38.69;32.46;98339.03;5015089;28;20198;-89
2023/07/20 08:19:06;;;;;;;7.40;3.35;;;;;;;38.86;32.29;98340.63;5015137;28;20237;-89
2023/07/20 08:21:31;;;;;;;5.18;3.13;;;;;;;38.98;30.20;98343.81;5015145;28;20178;-89
2023/07/20 08:23:57;;;;;;;5.47;3.50;;;;;;;39.10;31.16;98347.84;5015101;28;20209;-89
2023/07/20 08:26:23;;;;;;;8.88;3.40;;;;;;;39.29;30.24;98337.91;5015055;28;20198;-89
2023/07/20 08:28:49;;;;;;;4.72;2.90;;;;;;;39.50;29.73;98343.22;5014034;28;20199;-89
2023/07/20 08:31:14;;;;;;;8.30;3.22;;;;;;;39.71;28.36;98339.22;4987051;28;20243;-90
2023/07/20 08:33:40;;;;;;;5.82;2.70;;;;;;;39.69;29.39;98336.78;4978206;28;20182;-89
2023/07/20 08:36:05;;;;;;;4.85;3.05;;;;;;;39.74;29.13;98333.16;4995384;28;20272;-89
2023/07/20 08:38:31;;;;;;;8.40;2.92;;;;;;;39.99;28.37;98327.44;5006839;28;20179;-89
2023/07/20 08:40:59;;;;;;;6.75;3.38;;;;;;;39.85;28.50;98323.75;5014782;28;20182;-89
2023/07/20 08:43:25;;;;;;;8.63;3.53;;;;;;;39.92;27.80;98321.47;4997519;28;20619;-90
2023/07/20 08:45:52;;;;;;;4.82;2.90;;;;;;;39.85;29.00;98327.31;5014697;28;20257;-89
2023/07/20 08:48:19;;;;;;;5.32;2.55;;;;;;;39.50;30.26;98315.78;5014534;28;20253;-89
2023/07/20 08:53:38;;;;;;;5.45;3.22;;;;;;;39.68;28.27;98313.19;5004472;28;20230;-89
2023/07/20 08:56:05;;;;;;;5.80;3.10;;;;;;;39.92;29.08;98324.22;5014827;28;20182;-89
2023/07/20 08:58:31;;;;;;;4.40;3.00;;;;;;;40.17;28.28;98315.75;5014446;28;20237;-90
2023/07/20 09:00:59;;;;;;;6.18;3.38;;;;;;;40.29;30.25;98324.38;5014563;28;20241;-89
2023/07/20 09:03:25;;;;;;;6.65;2.70;;;;;;;39.84;28.85;98316.59;5014268;28;20608;-89
2023/07/20 09:05:50;;;;;;;4.03;2.70;;;;;;;40.11;30.48;98316.09;4996972;28;20538;-89
2023/07/20 09:08:16;;;;;;;9.02;3.05;;;;;;;40.32;29.17;98314.75;5014216;28;20171;-88
2023/07/20 09:10:41;;;;;;;5.32;2.97;;;;;;;40.29;27.74;98318.91;4997076;28;20179;-89
2023/07/20 09:13:07;;;;;;;7.88;3.45;;;;;;;40.63;27.82;98320.69;5014513;28;20175;-90
2023/07/20 09:15:32;;;;;;;6.13;3.20;;;;;;;40.38;26.81;98325.41;4996995;28;20265;-89
2023/07/20 09:18:01;;;;;;;5.03;3.00;;;;;;;40.74;26.72;98328.53;5013981;28;20237;-89
2023/07/20 09:20:26;;;;;;;6.57;3.47;;;;;;;40.53;27.77;98323.59;5014010;28;20205;-90
2023/07/20 09:22:55;;;;;;;5.43;3.08;;;;;;;40.71;27.79;98320.03;5013124;28;20178;-91
2023/07/20 09:25:20;;;;;;;4.63;3.03;;;;;;;40.99;27.10;98316.38;5014047;28;20625;-90
2023/07/20 09:27:47;;;;;;;7.38;3.35;;;;;;;41.02;26.66;98316.59;5016275;28;20194;-89
2023/07/20 09:30:14;;;;;;;5.75;3.03;;;;;;;40.93;27.04;98312.09;4996400;28;20214;-90
2023/07/20 09:32:41;;;;;;;4.93;2.95;;;;;;;41.05;27.02;98304.19;5013941;28;20187;-90
2023/07/20 09:35:12;;;;;;;8.05;3.40;;;;;;;40.63;26.30;98295.97;5013710;28;20254;-88
2023/07/20 09:37:38;;;;;;;6.15;2.85;;;;;;;40.74;28.89;98297.47;5013920;28;20563;-90
2023/07/20 09:40:07;;;;;;;5.50;2.97;;;;;;;40.67;28.63;98286.88;5013948;28;20178;-90
2023/07/20 09:42:32;;;;;;;9.60;4.07;;;;;;;40.49;27.32;98285.69;5013936;28;20266;-90
2023/07/20 09:45:00;;;;;;;6.07;2.63;;;;;;;40.91;27.51;98293.13;4997934;28;20218;-89
2023/07/20 09:47:27;;;;;;;9.13;3.38;;;;;;;41.11;27.26;98286.50;5013374;28;20218;-89
2023/07/20 09:50:03;;;;;;;6.72;2.90;;;;;;;41.05;26.23;98285.78;4996244;28;20759;-89
2023/07/20 09:52:29;;;;;;;6.97;2.95;;;;;;;40.98;25.69;98281.75;5013468;28;20209;-89
2023/07/20 09:54:55;;;;;;;7.28;3.70;;;;;;;40.76;26.71;98273.25;5013589;28;20211;-89
2023/07/20 09:57:24;;;;;;;7.53;3.28;;;;;;;40.91;27.84;98275.84;5012889;28;20345;-89
2023/07/20 09:59:49;;;;;;;5.13;2.80;;;;;;;41.25;27.27;98268.13;5013091;28;20174;-88
2023/07/20 10:02:27;;;;;;;4.60;2.78;;;;;;;41.36;25.75;98266.03;5013027;28;20252;-90
2023/07/20 10:04:54;;;;;;;5.20;2.88;;;;;;;41.33;26.79;98256.47;5013760;28;20167;-89
2023/07/20 10:07:22;;;;;;;5.97;3.00;;;;;;;41.65;26.29;98248.19;5007152;28;20188;-89
2023/07/20 10:09:51;;;;;;;6.00;3.17;;;;;;;41.90;25.95;98252.44;5003065;28;20667;-89
2023/07/20 10:12:21;;;;;;;5.80;3.28;;;;;;;41.99;25.79;98255.28;5013324;28;20187;-89
2023/07/20 10:15:01;;;;;;;5.60;2.85;;;;;;;41.97;25.60;98249.28;5013574;28;20286;-89
2023/07/20 10:17:26;;;;;;;5.18;3.15;;;;;;;41.92;26.46;98241.09;5013706;28;20159;-89
2023/07/20 10:19:56;;;;;;;5.22;2.90;;;;;;;42.02;26.36;98235.41;5013492;28;20191;-90
2023/07/20 10:22:27;;;;;;;5.53;2.90;;;;;;;42.25;25.14;98228.88;4982946;28;20202;-89
2023/07/20 10:24:54;;;;;;;5.72;2.80;;;;;;;42.43;23.89;98216.91;4994377;28;20241;-90
2023/07/20 10:27:20;;;;;;;7.07;3.03;;;;;;;41.43;24.94;98205.97;4976531;28;20190;-89
2023/07/20 10:29:47;;;;;;;5.22;2.90;;;;;;;41.90;25.71;98204.81;4999982;28;20673;-89
2023/07/20 10:32:13;;;;;;;5.75;2.72;;;;;;;42.25;25.76;98204.91;5012904;28;20543;-89
2023/07/20 10:34:39;;;;;;;4.20;2.95;;;;;;;42.41;25.10;98208.13;5013209;28;20185;-88
2023/07/20 10:37:05;;;;;;;10.13;3.83;;;;;;;42.49;24.18;98210.16;4995874;28;20178;-87
2023/07/20 10:39:54;;;;;;;7.20;2.90;;;;;;;42.52;25.14;98206.78;5012263;28;20650;-89
2023/07/20 10:42:20;;;;;;;5.93;3.00;;;;;;;42.44;25.07;98196.50;5013183;28;20163;-89
2023/07/20 10:44:47;;;;;;;9.27;3.33;;;;;;;42.58;24.02;98200.09;5013650;28;20190;-89
2023/07/20 10:47:13;;;;;;;6.57;3.40;;;;;;;42.78;24.73;98194.09;5013184;28;20625;-88
2023/07/20 10:50:00;;;;;;;5.85;3.42;;;;;;;42.27;24.17;98195.53;5012944;28;20210;-87
2023/07/20 10:52:26;;;;;;;8.63;3.10;;;;;;;42.59;23.68;98195.34;4978472;28;20189;-88
2023/07/20 10:54:51;;;;;;;3.90;2.38;;;;;;;42.98;23.40;98197.50;4997205;28;20183;-89
2023/07/20 10:57:31;;;;;;;7.60;3.05;;;;;;;43.08;23.55;98189.81;4997461;28;20569;-89
2023/07/20 11:00:11;;;;;;;4.60;2.85;;;;;;;43.25;24.18;98192.66;5014570;28;20178;-89
2023/07/20 11:02:52;;;;;;;5.55;2.97;;;;;;;42.85;23.28;98188.94;4999285;28;20541;-88
2023/07/20 11:05:38;;;;;;;5.88;3.30;;;;;;;42.90;24.77;98187.19;5016387;28;20570;-88
2023/07/20 11:08:05;;;;;;;5.63;2.58;;;;;;;42.54;23.92;98182.53;5016509;28;20635;-88
2023/07/20 11:10:31;;;;;;;7.72;3.65;;;;;;;42.71;23.96;98179.94;5016462;28;20631;-88
2023/07/20 11:13:22;;;;;;;5.15;3.30;;;;;;;42.82;24.81;98161.97;5016469;28;20178;-87
2023/07/20 11:16:08;;;;;;;10.18;2.75;;;;;;;42.58;23.70;98163.44;5016376;28;20206;-87
2023/07/20 11:18:39;;;;;;;6.25;3.38;;;;;;;42.41;24.16;98153.03;5015927;28;20190;-87
2023/07/20 11:21:07;;;;;;;5.70;3.28;;;;;;;42.75;23.83;98145.06;5015353;28;20229;-89
2023/07/20 11:23:33;;;;;;;7.70;3.80;;;;;;;42.95;23.93;98145.72;4998290;28;20210;-88
2023/07/20 11:26:00;;;;;;;7.15;2.85;;;;;;;43.16;23.67;98141.31;5016203;28;20194;-88
2023/07/20 11:28:25;;;;;;;4.95;3.45;;;;;;;42.87;23.38;98140.94;5016069;28;20240;-88
2023/07/20 11:30:53;;;;;;;7.07;3.05;;;;;;;42.76;24.11;98130.19;5007829;28;20183;-87
2023/07/20 11:33:19;;;;;;;4.15;2.78;;;;;;;43.12;23.83;98130.09;4996741;28;20521;-88
2023/07/20 11:35:46;;;;;;;5.90;3.63;;;;;;;41.84;25.67;98124.25;4996724;28;20262;-87